Time;durP1;ratioP1;P1;durP2;ratioP2;P2;SDS_P1;SDS_P2;PMS_P1;PMS_P2;Temp;Humidity;BMP_temperature;BMP_pressure;BME280_temperature;BME280_humidity;BME280_pressure;Samples;Min_cycle;Max_cycle;Signal;HPM_P1;HPM_P2
2021/08/25 00:01:27;;;;;;;5.07;2.10;;;16.20;98.80;;;;;;5032228;28;20531;-81
2021/08/25 00:03:54;;;;;;;5.32;2.20;;;16.10;98.80;;;;;;5031651;28;20050;-80
2021/08/25 00:06:20;;;;;;;2.60;2.10;;;16.10;99.00;;;;;;5032936;28;20030;-79
2021/08/25 00:08:45;;;;;;;4.75;2.08;;;16.10;99.00;;;;;;5032064;28;20030;-79
2021/08/25 00:11:11;;;;;;;5.00;2.15;;;16.10;99.20;;;;;;5031200;28;20025;-80
2021/08/25 00:13:37;;;;;;;3.28;1.83;;;16.00;99.00;;;;;;5032905;28;20226;-80
2021/08/25 00:16:03;;;;;;;4.50;1.92;;;16.00;99.20;;;;;;5031266;28;20033;-80
2021/08/25 00:18:29;;;;;;;7.82;2.15;;;16.00;99.20;;;;;;5033213;28;20030;-79
2021/08/25 00:20:54;;;;;;;3.17;2.28;;;15.90;99.30;;;;;;5030819;28;20036;-79
2021/08/25 00:23:20;;;;;;;4.10;1.85;;;15.90;99.40;;;;;;5031345;28;20131;-80
2021/08/25 00:25:46;;;;;;;7.45;2.38;;;15.80;99.40;;;;;;5031514;28;20496;-80
2021/08/25 00:28:11;;;;;;;6.63;1.90;;;15.80;99.50;;;;;;5019656;28;20038;-80
2021/08/25 00:30:37;;;;;;;4.25;2.40;;;15.70;99.50;;;;;;5012486;28;20026;-80
2021/08/25 00:33:03;;;;;;;5.57;2.10;;;15.70;99.60;;;;;;5012873;28;20037;-79
2021/08/25 00:35:28;;;;;;;6.68;2.13;;;15.70;99.60;;;;;;5009752;28;20042;-80
2021/08/25 00:37:54;;;;;;;4.63;2.08;;;15.70;99.70;;;;;;5013132;28;20034;-80
2021/08/25 00:40:20;;;;;;;4.82;2.00;;;15.60;99.70;;;;;;5013243;28;20654;-80
2021/08/25 00:42:46;;;;;;;5.93;1.88;;;15.60;99.70;;;;;;5030686;28;20033;-80
2021/08/25 00:45:11;;;;;;;6.03;1.60;;;15.50;99.90;;;;;;5024037;28;20164;-80
2021/08/25 00:47:38;;;;;;;6.72;2.03;;;15.50;99.90;;;;;;5011065;28;20096;-79
2021/08/25 00:50:05;;;;;;;4.05;2.00;;;15.40;99.90;;;;;;5011482;28;20018;-80
2021/08/25 00:52:31;;;;;;;9.68;2.10;;;15.40;99.90;;;;;;5011074;28;20037;-80
2021/08/25 00:55:01;;;;;;;4.35;1.70;;;15.40;99.90;;;;;;5013204;28;20388;-80
2021/08/25 00:57:30;;;;;;;4.60;2.20;;;15.40;99.90;;;;;;5012568;28;20030;-80
2021/08/25 00:59:55;;;;;;;4.47;2.00;;;15.40;99.90;;;;;;5010957;28;20041;-79
2021/08/25 01:02:36;;;;;;;4.18;1.80;;;15.30;99.90;;;;;;5010287;28;20034;-79
2021/08/25 01:05:05;;;;;;;5.10;1.73;;;15.30;99.90;;;;;;5015518;28;20026;-81
2021/08/25 01:07:32;;;;;;;4.72;2.00;;;15.20;99.90;;;;;;5030234;28;20025;-80
2021/08/25 01:09:57;;;;;;;5.82;2.20;;;15.20;99.90;;;;;;5028702;28;20214;-80
2021/08/25 01:12:26;;;;;;;3.60;1.95;;;15.10;99.90;;;;;;5030240;28;20492;-79
2021/08/25 01:14:52;;;;;;;2.92;1.80;;;15.20;99.90;;;;;;5029899;28;20029;-79
2021/08/25 01:17:23;;;;;;;3.60;1.90;;;15.20;99.90;;;;;;5031581;28;20476;-81
2021/08/25 01:20:03;;;;;;;3.95;1.92;;;15.10;99.90;;;;;;5030112;28;20044;-79
2021/08/25 01:22:29;;;;;;;3.85;2.20;;;15.10;99.90;;;;;;5011017;28;20022;-80
2021/08/25 01:24:56;;;;;;;7.20;2.10;;;15.10;99.90;;;;;;5012150;28;20076;-79
2021/08/25 01:27:25;;;;;;;4.03;2.30;;;15.10;99.90;;;;;;5016163;28;20415;-79
2021/08/25 01:29:52;;;;;;;5.95;2.28;;;15.10;99.90;;;;;;5031724;28;20067;-79
2021/08/25 01:32:18;;;;;;;3.40;2.30;;;15.00;99.90;;;;;;5030260;28;20489;-79
2021/08/25 01:34:52;;;;;;;9.48;2.05;;;15.00;99.90;;;;;;5028750;28;20382;-80
2021/08/25 01:37:19;;;;;;;7.90;2.30;;;14.90;99.90;;;;;;5031157;28;20041;-79
2021/08/25 01:39:44;;;;;;;7.20;2.13;;;14.80;99.90;;;;;;5030266;28;20443;-79
2021/08/25 01:42:10;;;;;;;6.25;2.28;;;14.70;99.90;;;;;;5017078;28;20026;-79
2021/08/25 01:44:37;;;;;;;5.68;2.60;;;14.70;99.90;;;;;;5028800;28;20112;-79
2021/08/25 01:47:03;;;;;;;2.30;2.10;;;14.60;99.90;;;;;;5030331;28;20041;-79
2021/08/25 01:49:28;;;;;;;7.13;2.30;;;14.50;99.90;;;;;;5030358;28;20030;-80
2021/08/25 01:51:57;;;;;;;3.65;2.30;;;14.40;99.90;;;;;;5029194;28;20036;-79
2021/08/25 01:54:24;;;;;;;3.65;2.10;;;14.40;99.90;;;;;;5030094;28;20068;-80
2021/08/25 01:56:51;;;;;;;6.75;2.13;;;14.30;99.90;;;;;;5030363;28;20045;-79
2021/08/25 01:59:17;;;;;;;6.55;2.20;;;14.30;99.90;;;;;;5031156;28;20089;-79
2021/08/25 02:01:43;;;;;;;7.00;2.38;;;14.20;99.90;;;;;;5025244;28;20405;-80
2021/08/25 02:04:09;;;;;;;3.47;2.22;;;14.20;99.90;;;;;;5010885;28;20049;-79
2021/08/25 02:06:34;;;;;;;6.25;1.98;;;14.20;99.90;;;;;;5028251;28;20068;-80
2021/08/25 02:09:00;;;;;;;4.95;2.20;;;14.10;99.90;;;;;;5031246;28;20079;-80
2021/08/25 02:11:26;;;;;;;4.65;2.05;;;14.10;99.90;;;;;;5029665;28;20029;-79
2021/08/25 02:13:52;;;;;;;4.70;2.50;;;14.10;99.90;;;;;;5029172;28;20064;-79
2021/08/25 02:16:18;;;;;;;5.47;2.13;;;14.00;99.90;;;;;;5029236;28;20483;-80
2021/08/25 02:18:44;;;;;;;5.45;2.10;;;14.00;99.90;;;;;;5029347;28;20033;-80
2021/08/25 02:21:10;;;;;;;4.85;2.03;;;14.00;99.90;;;;;;5028583;28;20029;-81
2021/08/25 02:23:35;;;;;;;2.92;2.20;;;13.90;99.90;;;;;;5030463;28;20030;-81
2021/08/25 02:26:01;;;;;;;4.03;2.35;;;13.90;99.90;;;;;;5029500;28;20447;-80
2021/08/25 02:28:27;;;;;;;2.40;1.88;;;13.90;99.90;;;;;;5014032;28;20085;-80
2021/08/25 02:30:52;;;;;;;4.03;2.20;;;13.90;99.90;;;;;;5010788;28;20091;-80
2021/08/25 02:33:18;;;;;;;5.93;2.10;;;13.90;99.90;;;;;;5010064;28;20552;-79
2021/08/25 02:35:44;;;;;;;3.13;2.15;;;13.90;99.90;;;;;;5009603;28;20037;-79
2021/08/25 02:38:10;;;;;;;4.95;2.08;;;13.90;99.90;;;;;;5008531;28;20034;-80
2021/08/25 02:40:39;;;;;;;4.63;2.45;;;13.90;99.90;;;;;;5012412;28;20397;-81
2021/08/25 02:43:06;;;;;;;6.57;2.30;;;14.00;99.90;;;;;;5030650;28;20030;-79
2021/08/25 02:45:31;;;;;;;6.95;2.17;;;14.00;99.90;;;;;;5048692;28;20096;-80
2021/08/25 02:47:57;;;;;;;6.43;2.10;;;14.00;99.90;;;;;;5050512;28;20159;-81
2021/08/25 02:50:23;;;;;;;5.15;2.40;;;14.00;99.90;;;;;;5040000;28;20101;-79
2021/08/25 02:52:49;;;;;;;5.72;2.10;;;14.00;99.90;;;;;;5029127;28;20030;-79
2021/08/25 02:55:14;;;;;;;4.80;2.40;;;14.00;99.90;;;;;;5031135;28;20090;-81
2021/08/25 02:57:40;;;;;;;7.55;2.92;;;13.90;99.90;;;;;;5030258;28;20083;-79
2021/08/25 03:00:07;;;;;;;2.85;2.08;;;13.90;99.90;;;;;;5030935;28;20026;-80
2021/08/25 03:02:32;;;;;;;4.00;2.45;;;13.90;99.90;;;;;;5018426;28;20034;-81
2021/08/25 03:04:58;;;;;;;7.22;2.25;;;13.90;99.90;;;;;;5010922;28;20041;-80
2021/08/25 03:07:23;;;;;;;3.53;2.25;;;13.90;99.90;;;;;;5009052;28;20481;-80
2021/08/25 03:09:50;;;;;;;6.88;1.98;;;13.90;99.90;;;;;;5009333;28;20029;-80
2021/08/25 03:12:16;;;;;;;4.30;2.08;;;13.80;99.90;;;;;;5010455;28;20026;-80
2021/08/25 03:14:41;;;;;;;3.35;2.00;;;13.80;99.90;;;;;;5010130;28;20018;-79
2021/08/25 03:17:10;;;;;;;5.38;2.25;;;13.80;99.90;;;;;;5010485;28;20034;-78
2021/08/25 03:19:36;;;;;;;9.10;2.35;;;13.80;99.90;;;;;;5009461;28;20061;-79
2021/08/25 03:22:02;;;;;;;5.22;2.22;;;13.80;99.90;;;;;;5023626;28;20053;-79
2021/08/25 03:24:28;;;;;;;6.55;2.17;;;13.80;99.90;;;;;;5029965;28;20033;-79
2021/08/25 03:26:54;;;;;;;7.00;2.45;;;13.80;99.90;;;;;;5028672;28;20029;-79
2021/08/25 03:29:19;;;;;;;2.90;2.08;;;13.70;99.90;;;;;;5027781;28;20038;-80
2021/08/25 03:31:45;;;;;;;4.57;2.22;;;13.70;99.90;;;;;;5031582;28;20030;-79
2021/08/25 03:34:11;;;;;;;5.32;2.55;;;13.70;99.90;;;;;;5031847;28;20461;-80
2021/08/25 03:36:36;;;;;;;6.40;2.53;;;13.70;99.90;;;;;;5031953;28;20089;-78
2021/08/25 03:39:02;;;;;;;3.40;2.33;;;13.70;99.90;;;;;;5033909;28;20523;-79
2021/08/25 03:41:28;;;;;;;6.35;2.20;;;13.60;99.90;;;;;;5023826;28;20026;-79
2021/08/25 03:43:53;;;;;;;6.68;2.33;;;13.60;99.90;;;;;;5023248;28;20028;-79
2021/08/25 03:46:19;;;;;;;4.47;2.22;;;13.60;99.90;;;;;;5035342;28;20113;-79
2021/08/25 03:48:45;;;;;;;5.97;2.35;;;13.60;99.90;;;;;;5043022;28;20040;-81
2021/08/25 03:51:10;;;;;;;7.35;2.67;;;13.60;99.90;;;;;;5028588;28;20026;-80
2021/08/25 03:53:37;;;;;;;6.20;2.60;;;13.60;99.90;;;;;;5033338;28;20034;-79
2021/08/25 03:56:03;;;;;;;9.18;2.50;;;13.50;99.90;;;;;;5033047;28;20036;-80
2021/08/25 03:58:28;;;;;;;4.13;2.35;;;13.50;99.90;;;;;;5033152;28;20037;-79
2021/08/25 04:00:54;;;;;;;7.88;2.95;;;13.50;99.90;;;;;;5033486;28;20098;-79
2021/08/25 04:03:20;;;;;;;4.97;2.55;;;13.50;99.90;;;;;;5014236;28;20076;-79
2021/08/25 04:05:45;;;;;;;4.97;2.40;;;13.50;99.90;;;;;;5013099;28;20026;-79
2021/08/25 04:08:11;;;;;;;4.55;2.38;;;13.50;99.90;;;;;;5011602;28;20030;-79
2021/08/25 04:10:40;;;;;;;5.57;2.35;;;13.40;99.90;;;;;;5012310;28;20505;-79
2021/08/25 04:13:06;;;;;;;5.78;2.65;;;13.50;99.90;;;;;;5012659;28;20408;-79
2021/08/25 04:15:32;;;;;;;8.13;2.65;;;13.40;99.90;;;;;;5011639;28;20144;-79
2021/08/25 04:17:57;;;;;;;3.78;2.50;;;13.50;99.90;;;;;;5012122;28;20049;-79
2021/08/25 04:20:23;;;;;;;5.35;2.50;;;13.50;99.90;;;;;;5011298;28;20583;-80
2021/08/25 04:22:48;;;;;;;5.78;2.67;;;13.50;99.90;;;;;;5011653;28;20022;-79
2021/08/25 04:25:15;;;;;;;5.55;2.40;;;13.50;99.90;;;;;;5013420;28;20034;-79
2021/08/25 04:27:40;;;;;;;3.72;2.50;;;13.50;99.90;;;;;;5012849;28;20478;-79
2021/08/25 04:30:06;;;;;;;4.82;2.63;;;13.50;99.90;;;;;;5012523;28;20061;-79
2021/08/25 04:32:32;;;;;;;5.10;2.33;;;13.50;99.90;;;;;;5012831;28;20573;-80
2021/08/25 04:34:58;;;;;;;4.32;2.60;;;13.50;99.90;;;;;;5013149;28;20045;-80
2021/08/25 04:37:24;;;;;;;5.85;2.88;;;13.50;99.90;;;;;;5011213;28;20514;-80
2021/08/25 04:39:49;;;;;;;5.65;2.35;;;13.50;99.90;;;;;;5011400;28;20057;-79
2021/08/25 04:42:18;;;;;;;5.05;2.80;;;13.50;99.90;;;;;;5012717;28;20017;-79
2021/08/25 04:44:43;;;;;;;4.18;2.83;;;13.50;99.90;;;;;;5043910;28;20513;-78
2021/08/25 04:47:09;;;;;;;8.38;2.65;;;13.60;99.90;;;;;;5050976;28;20111;-80
2021/08/25 04:49:35;;;;;;;4.85;3.28;;;13.50;99.90;;;;;;5048067;28;20027;-79
2021/08/25 04:52:00;;;;;;;3.72;2.42;;;13.60;99.90;;;;;;5010097;28;20029;-79
2021/08/25 04:54:26;;;;;;;6.70;2.83;;;13.50;99.90;;;;;;5012571;28;20036;-79
2021/08/25 04:56:51;;;;;;;6.32;3.03;;;13.50;99.90;;;;;;5011080;28;20038;-79
2021/08/25 04:59:17;;;;;;;11.93;3.17;;;13.50;99.90;;;;;;5011180;28;20100;-79
2021/08/25 05:01:43;;;;;;;6.10;3.10;;;13.50;99.90;;;;;;5010686;28;20076;-80
2021/08/25 05:04:08;;;;;;;5.30;3.13;;;13.50;99.90;;;;;;5012157;28;20104;-82
2021/08/25 05:06:34;;;;;;;4.50;2.45;;;13.50;99.90;;;;;;5012083;28;20030;-82
2021/08/25 05:08:59;;;;;;;4.15;2.90;;;13.50;99.90;;;;;;5011193;28;20116;-81
2021/08/25 05:11:25;;;;;;;3.65;2.65;;;13.50;99.90;;;;;;5010742;28;20029;-81
2021/08/25 05:13:51;;;;;;;3.90;2.63;;;13.40;99.90;;;;;;5010727;28;20454;-82
2021/08/25 05:16:16;;;;;;;4.15;3.10;;;13.40;99.90;;;;;;5010570;28;20129;-82
2021/08/25 05:18:42;;;;;;;4.40;2.75;;;13.40;99.90;;;;;;5010260;28;20034;-81
2021/08/25 05:21:11;;;;;;;4.38;2.20;;;13.40;99.90;;;;;;5018696;28;20580;-83
2021/08/25 05:23:36;;;;;;;4.57;2.90;;;13.40;99.90;;;;;;5030785;28;20493;-81
2021/08/25 05:26:03;;;;;;;5.60;3.20;;;13.40;99.90;;;;;;5030872;28;20061;-81
2021/08/25 05:28:29;;;;;;;4.40;2.75;;;13.40;99.90;;;;;;5016810;28;20040;-79
2021/08/25 05:30:55;;;;;;;6.53;3.00;;;13.40;99.90;;;;;;5010440;28;20030;-80
2021/08/25 05:33:20;;;;;;;4.60;2.55;;;13.40;99.90;;;;;;5010611;28;20037;-82
2021/08/25 05:35:47;;;;;;;6.47;3.10;;;13.40;99.90;;;;;;5011702;28;20030;-81
2021/08/25 05:38:13;;;;;;;9.90;3.08;;;13.40;99.90;;;;;;5011199;28;20029;-81
2021/08/25 05:40:38;;;;;;;9.68;3.28;;;13.50;99.90;;;;;;5026795;28;20030;-82
2021/08/25 05:43:04;;;;;;;3.85;2.92;;;13.50;99.90;;;;;;5012024;28;20422;-82
2021/08/25 05:45:30;;;;;;;4.57;3.00;;;13.60;99.90;;;;;;5046180;28;20499;-81
2021/08/25 05:47:58;;;;;;;5.22;3.08;;;13.60;99.90;;;;;;5035109;28;20060;-82
2021/08/25 05:50:25;;;;;;;4.03;2.88;;;13.60;99.90;;;;;;5027578;28;20021;-81
2021/08/25 05:52:51;;;;;;;5.28;2.92;;;13.70;99.90;;;;;;5011311;28;20105;-81
2021/08/25 05:55:17;;;;;;;4.90;3.00;;;13.70;99.90;;;;;;5012004;28;20108;-81
2021/08/25 05:57:46;;;;;;;13.63;3.05;;;13.70;99.90;;;;;;5009314;28;20121;-82
2021/08/25 06:00:16;;;;;;;5.25;2.60;;;13.80;99.90;;;;;;5009674;28;20025;-81
2021/08/25 06:02:45;;;;;;;4.57;3.00;;;13.80;99.90;;;;;;5023273;28;20050;-81
2021/08/25 06:05:12;;;;;;;6.20;3.03;;;13.90;99.90;;;;;;5024874;28;20042;-83
2021/08/25 06:07:38;;;;;;;5.60;2.72;;;14.00;99.90;;;;;;5018820;28;20028;-81
2021/08/25 06:10:04;;;;;;;8.93;3.42;;;14.10;99.90;;;;;;5011222;28;20028;-87
2021/08/25 06:12:30;;;;;;;5.80;2.83;;;14.20;99.90;;;;;;5009877;28;20123;-87
2021/08/25 06:14:56;;;;;;;5.03;2.67;;;14.20;99.90;;;;;;5011560;28;20093;-84
2021/08/25 06:17:21;;;;;;;4.85;3.03;;;14.30;99.90;;;;;;5009429;28;20029;-84
2021/08/25 06:19:47;;;;;;;4.15;2.58;;;14.30;99.90;;;;;;5012622;28;20029;-83
2021/08/25 06:22:13;;;;;;;9.15;3.20;;;14.40;99.90;;;;;;5022723;28;20033;-88
2021/08/25 06:24:38;;;;;;;5.32;2.88;;;14.40;99.90;;;;;;5029182;28;20057;-84
2021/08/25 06:27:04;;;;;;;5.70;3.33;;;14.50;99.90;;;;;;5027197;28;20022;-86
2021/08/25 06:29:30;;;;;;;6.75;3.17;;;14.60;99.90;;;;;;5009265;28;20030;-85
2021/08/25 06:31:56;;;;;;;4.35;2.88;;;14.70;99.90;;;;;;5018177;28;20025;-81
2021/08/25 06:34:21;;;;;;;6.10;2.97;;;14.80;99.90;;;;;;5038800;28;20021;-84
2021/08/25 06:36:47;;;;;;;6.25;2.75;;;14.90;99.90;;;;;;5018295;28;20511;-81
2021/08/25 06:39:13;;;;;;;8.63;2.95;;;14.90;99.90;;;;;;5024398;28;20026;-84
2021/08/25 06:41:38;;;;;;;3.65;2.72;;;15.10;99.90;;;;;;5020134;28;20033;-85
2021/08/25 06:44:04;;;;;;;3.55;2.47;;;15.10;99.90;;;;;;5028078;28;20032;-86
2021/08/25 06:46:30;;;;;;;5.80;2.60;;;15.20;99.90;;;;;;5028831;28;20025;-87
2021/08/25 06:48:55;;;;;;;3.78;2.60;;;15.40;99.90;;;;;;5048864;28;20027;-86
2021/08/25 06:51:21;;;;;;;6.22;2.67;;;15.50;99.90;;;;;;5016784;28;20058;-85
2021/08/25 06:53:47;;;;;;;7.18;3.13;;;15.50;99.90;;;;;;5016176;28;20097;-82
2021/08/25 06:56:12;;;;;;;3.70;2.47;;;15.70;99.90;;;;;;5023424;28;20037;-91
2021/08/25 06:58:38;;;;;;;4.72;2.70;;;15.80;99.90;;;;;;5035406;28;20033;-84
2021/08/25 07:01:04;;;;;;;6.35;2.95;;;15.90;99.90;;;;;;5025730;28;20561;-84
2021/08/25 07:03:29;;;;;;;5.00;2.95;;;15.90;99.90;;;;;;5018741;28;20057;-80
2021/08/25 07:05:55;;;;;;;6.05;2.70;;;16.10;99.90;;;;;;5015281;28;20033;-75
2021/08/25 07:08:21;;;;;;;4.00;2.78;;;16.20;99.90;;;;;;5021122;28;20029;-76
2021/08/25 07:10:46;;;;;;;6.05;2.88;;;16.30;99.90;;;;;;5024906;28;20025;-80
2021/08/25 07:13:12;;;;;;;6.97;2.70;;;16.30;99.90;;;;;;5025271;28;20029;-80
2021/08/25 07:15:38;;;;;;;8.02;2.83;;;16.40;99.90;;;;;;5016795;28;20038;-81
2021/08/25 07:18:03;;;;;;;4.78;2.88;;;16.60;99.90;;;;;;5027469;28;20033;-82
2021/08/25 07:20:29;;;;;;;16.15;2.92;;;16.60;99.90;;;;;;5025947;28;20025;-78
2021/08/25 07:22:55;;;;;;;8.35;2.58;;;16.80;99.90;;;;;;5020249;28;20091;-83
2021/08/25 07:25:20;;;;;;;12.77;2.80;;;16.90;99.90;;;;;;5021316;28;20033;-82
2021/08/25 07:27:46;;;;;;;9.27;2.83;;;17.00;99.90;;;;;;5020650;28;20058;-86
2021/08/25 07:30:13;;;;;;;6.70;2.70;;;17.10;99.90;;;;;;5028770;28;20101;-78
2021/08/25 07:32:40;;;;;;;5.15;2.88;;;17.30;99.90;;;;;;5024976;28;20037;-78
2021/08/25 07:35:10;;;;;;;4.57;2.60;;;17.50;99.90;;;;;;5017971;28;20099;-86
2021/08/25 07:37:37;;;;;;;7.45;3.08;;;17.60;99.90;;;;;;5019699;28;20040;-84
2021/08/25 07:40:04;;;;;;;3.42;2.40;;;17.70;99.90;;;;;;5018011;28;20050;-85
2021/08/25 07:42:30;;;;;;;6.18;2.63;;;17.90;99.90;;;;;;5025901;28;20033;-85
2021/08/25 07:44:56;;;;;;;3.38;2.42;;;17.90;99.90;;;;;;5029461;28;20024;-77
2021/08/25 07:47:22;;;;;;;6.35;2.75;;;18.10;99.90;;;;;;5034838;28;20033;-83
2021/08/25 07:49:47;;;;;;;5.47;2.50;;;18.30;99.90;;;;;;5030765;28;20292;-83
2021/08/25 07:52:13;;;;;;;7.70;2.70;;;18.40;99.90;;;;;;5019409;28;20033;-82
2021/08/25 07:54:39;;;;;;;4.20;2.58;;;18.60;99.90;;;;;;5025044;28;20022;-83
2021/08/25 07:57:05;;;;;;;5.57;2.28;;;18.80;99.90;;;;;;5027329;28;20164;-76
2021/08/25 07:59:30;;;;;;;5.22;2.50;;;19.10;99.90;;;;;;5021318;28;20049;-86
2021/08/25 08:01:56;;;;;;;5.20;2.83;;;19.30;99.90;;;;;;5021995;28;20034;-86
2021/08/25 08:04:22;;;;;;;10.20;2.45;;;19.50;99.30;;;;;;5014636;28;20147;-84
2021/08/25 08:06:48;;;;;;;8.10;2.60;;;20.00;99.00;;;;;;5019307;28;20038;-85
2021/08/25 08:09:14;;;;;;;4.65;2.28;;;21.90;96.80;;;;;;5023295;28;20028;-79
2021/08/25 08:11:40;;;;;;;5.85;2.42;;;24.60;92.80;;;;;;5026344;28;20358;-86
2021/08/25 08:14:07;;;;;;;6.90;2.60;;;26.50;89.80;;;;;;5025349;28;20087;-79
2021/08/25 08:16:35;;;;;;;3.25;2.72;;;27.40;85.60;;;;;;5019410;28;20040;-77
2021/08/25 08:19:05;;;;;;;4.97;2.55;;;28.60;82.80;;;;;;5022092;28;20030;-84
2021/08/25 08:21:31;;;;;;;5.85;2.97;;;28.60;80.90;;;;;;5009230;28;20030;-79
2021/08/25 08:23:58;;;;;;;6.13;2.95;;;29.30;80.10;;;;;;5026106;28;20034;-86
2021/08/25 08:26:28;;;;;;;4.00;2.40;;;29.90;78.00;;;;;;5019923;28;20481;-79
2021/08/25 08:28:54;;;;;;;2.47;2.28;;;30.20;76.90;;;;;;5027870;28;20029;-87
2021/08/25 08:31:20;;;;;;;7.07;2.67;;;29.90;76.90;;;;;;5033730;28;20033;-87
2021/08/25 08:33:45;;;;;;;7.32;2.70;;;29.90;76.60;;;;;;5017665;28;20026;-80
2021/08/25 08:36:11;;;;;;;9.20;2.38;;;29.50;76.00;;;;;;5011643;28;20025;-85
2021/08/25 08:38:37;;;;;;;4.53;2.70;;;30.00;75.70;;;;;;5021066;28;20507;-85
2021/08/25 08:41:02;;;;;;;6.63;3.60;;;30.90;74.40;;;;;;5016875;28;20037;-86
2021/08/25 08:43:29;;;;;;;4.25;2.72;;;30.30;74.00;;;;;;5023538;28;20512;-86
2021/08/25 08:45:55;;;;;;;16.33;2.58;;;30.80;74.20;;;;;;5023210;28;20029;-85
2021/08/25 08:48:22;;;;;;;5.15;2.90;;;30.60;73.30;;;;;;5017060;28;20847;-79
2021/08/25 08:50:47;;;;;;;3.53;2.70;;;31.00;73.60;;;;;;5020689;28;20029;-85
2021/08/25 08:53:14;;;;;;;6.97;2.63;;;30.90;72.80;;;;;;5028213;28;20044;-85
2021/08/25 08:55:40;;;;;;;4.57;2.80;;;30.60;73.00;;;;;;5019275;28;20044;-87
2021/08/25 08:58:06;;;;;;;4.43;2.95;;;30.90;73.40;;;;;;5020356;28;20021;-87
2021/08/25 09:00:33;;;;;;;6.28;2.58;;;31.00;72.50;;;;;;5020546;28;20096;-88
2021/08/25 09:02:58;;;;;;;2.97;2.78;;;31.60;71.70;;;;;;5024482;28;20102;-89
2021/08/25 09:05:34;;;;;;;8.15;2.65;;;31.90;71.20;;;;;;5024857;28;20591;-87
2021/08/25 09:08:02;;;;;;;3.35;2.80;;;31.50;70.80;;;;;;5018305;28;20108;-84
2021/08/25 09:10:28;;;;;;;3.95;2.60;;;32.30;70.60;;;;;;5025926;28;20068;-88
2021/08/25 09:13:03;;;;;;;6.78;2.85;;;32.40;69.60;;;;;;5029136;28;20037;-88
2021/08/25 09:15:34;;;;;;;4.38;2.60;;;32.10;70.30;;;;;;5020564;28;20049;-84
2021/08/25 09:18:08;;;;;;;3.65;2.45;;;31.80;70.80;;;;;;5012844;28;20106;-85
2021/08/25 09:20:48;;;;;;;3.60;2.80;;;31.30;70.80;;;;;;5013480;28;20033;-85
2021/08/25 09:23:18;;;;;;;4.60;2.80;;;31.30;70.50;;;;;;5024928;28;20037;-85
2021/08/25 09:25:47;;;;;;;3.20;2.53;;;32.00;70.30;;;;;;5009947;28;20022;-86
2021/08/25 09:28:16;;;;;;;3.08;2.70;;;32.20;70.00;;;;;;5022552;28;20401;-86
2021/08/25 09:30:49;;;;;;;3.95;2.80;;;33.00;69.50;;;;;;5045404;28;20022;-86
2021/08/25 09:33:15;;;;;;;4.80;2.60;;;32.70;68.90;;;;;;5018072;28;20036;-86
2021/08/25 09:35:42;;;;;;;7.13;3.20;;;32.70;69.20;;;;;;5021378;28;20034;-84
2021/08/25 09:38:08;;;;;;;7.05;3.30;;;32.40;68.50;;;;;;5029081;28;20022;-88
2021/08/25 09:40:45;;;;;;;11.68;3.15;;;32.40;68.60;;;;;;5021784;28;20166;-79
2021/08/25 09:43:10;;;;;;;8.38;2.90;;;32.20;68.70;;;;;;5022603;28;20067;-88
2021/08/25 09:45:36;;;;;;;2.90;2.60;;;32.30;68.80;;;;;;5028299;28;20120;-78
2021/08/25 09:48:02;;;;;;;2.90;2.70;;;32.50;68.40;;;;;;5031551;28;20037;-86
2021/08/25 09:50:27;;;;;;;3.67;3.00;;;32.70;68.70;;;;;;5032779;28;20021;-86
2021/08/25 09:52:54;;;;;;;4.28;2.67;;;32.50;68.60;;;;;;5029374;28;20029;-79
2021/08/25 09:55:33;;;;;;;7.82;2.85;;;32.40;68.00;;;;;;5019622;28;20484;-84
2021/08/25 09:58:00;;;;;;;8.07;2.85;;;32.80;68.00;;;;;;5017365;28;20416;-85
2021/08/25 10:00:26;;;;;;;8.52;2.80;;;33.10;68.00;;;;;;5018925;28;20030;-86
2021/08/25 10:02:52;;;;;;;6.43;2.75;;;33.40;67.20;;;;;;5015080;28;20042;-80
2021/08/25 10:05:26;;;;;;;3.67;3.13;;;33.40;67.00;;;;;;5023162;28;20108;-86
2021/08/25 10:07:52;;;;;;;3.25;2.53;;;33.60;66.60;;;;;;5020766;28;20018;-87
2021/08/25 10:10:17;;;;;;;4.55;2.60;;;33.30;66.70;;;;;;5024098;28;20792;-79
2021/08/25 10:12:43;;;;;;;3.88;2.80;;;33.10;67.80;;;;;;5017871;28;20033;-88
2021/08/25 10:15:47;;;;;;;7.45;2.92;;;32.70;66.50;;;;;;5018150;28;20397;-85
2021/08/25 10:18:42;;;;;;;2.58;2.20;;;32.60;66.40;;;;;;5024719;28;20500;-78
2021/08/25 10:21:33;;;;;;;4.13;2.60;;;32.40;67.50;;;;;;5015515;28;20033;-84
2021/08/25 10:24:04;;;;;;;2.90;2.28;;;31.60;68.50;;;;;;5019278;28;20087;-85
2021/08/25 10:26:32;;;;;;;3.53;2.42;;;31.90;68.40;;;;;;5021390;28;20014;-87
2021/08/25 10:29:11;;;;;;;4.43;2.80;;;31.60;68.10;;;;;;5022946;28;20063;-86
2021/08/25 10:31:49;;;;;;;5.55;2.58;;;31.50;68.60;;;;;;5015982;28;20030;-79
2021/08/25 10:34:17;;;;;;;6.00;2.50;;;31.60;68.70;;;;;;5012998;28;20041;-80
2021/08/25 10:36:42;;;;;;;3.45;2.60;;;31.60;68.20;;;;;;5020739;28;20033;-87
2021/08/25 10:39:36;;;;;;;7.55;2.60;;;32.00;68.00;;;;;;5018489;28;20117;-86
2021/08/25 10:42:03;;;;;;;4.60;2.63;;;32.50;66.40;;;;;;5018072;28;20049;-87
2021/08/25 10:44:41;;;;;;;2.30;2.10;;;32.30;66.80;;;;;;5015138;28;20033;-82
2021/08/25 10:47:08;;;;;;;4.22;2.30;;;31.90;66.70;;;;;;5013734;28;20029;-87
2021/08/25 10:49:36;;;;;;;2.25;2.05;;;31.80;67.60;;;;;;5020747;28;20029;-87
2021/08/25 10:52:14;;;;;;;4.90;2.40;;;31.50;67.40;;;;;;5025556;28;20029;-87
2021/08/25 10:54:49;;;;;;;5.07;2.28;;;31.70;67.00;;;;;;5019694;28;20033;-86
2021/08/25 10:57:16;;;;;;;4.55;2.20;;;31.60;67.50;;;;;;5007913;28;20639;-87
2021/08/25 10:59:42;;;;;;;2.47;2.28;;;32.00;67.70;;;;;;5010762;28;20537;-84
2021/08/25 11:02:08;;;;;;;7.78;2.50;;;32.50;66.60;;;;;;5013668;28;20105;-87
2021/08/25 11:04:34;;;;;;;4.68;2.38;;;32.10;65.50;;;;;;5022503;28;20465;-87
2021/08/25 11:07:06;;;;;;;3.17;2.60;;;31.60;66.50;;;;;;5030473;28;20094;-86
2021/08/25 11:09:41;;;;;;;3.63;2.30;;;31.10;66.40;;;;;;5027405;28;20371;-85
2021/08/25 11:12:09;;;;;;;6.45;2.90;;;30.80;68.00;;;;;;5029998;28;20030;-85
2021/08/25 11:14:45;;;;;;;12.07;2.60;;;31.30;67.10;;;;;;5011605;28;20033;-85
2021/08/25 11:17:26;;;;;;;6.95;2.42;;;31.40;66.50;;;;;;5021552;28;20018;-86
2021/08/25 11:20:00;;;;;;;2.40;2.20;;;31.10;66.00;;;;;;5012198;28;20104;-86
2021/08/25 11:22:31;;;;;;;5.88;2.22;;;31.10;67.10;;;;;;5022998;28;20037;-86
2021/08/25 11:25:02;;;;;;;3.83;2.40;;;30.50;67.10;;;;;;5010638;28;20477;-78
2021/08/25 11:27:36;;;;;;;5.82;2.50;;;29.80;68.60;;;;;;5018679;28;20060;-86
2021/08/25 11:30:21;;;;;;;4.25;2.22;;;29.30;69.70;;;;;;5029698;28;20057;-86
2021/08/25 11:32:48;;;;;;;2.10;2.00;;;29.40;70.50;;;;;;5028810;28;20041;-86
2021/08/25 11:35:42;;;;;;;3.03;2.20;;;29.30;69.60;;;;;;5016623;28;20072;-85
2021/08/25 11:38:14;;;;;;;5.03;2.28;;;29.50;69.70;;;;;;5017164;28;20022;-85
2021/08/25 11:40:43;;;;;;;5.20;2.50;;;29.30;67.50;;;;;;5041401;28;20029;-83
2021/08/25 11:43:18;;;;;;;6.07;2.42;;;29.10;68.20;;;;;;5033718;28;20029;-85
2021/08/25 11:45:45;;;;;;;12.52;2.45;;;28.70;68.30;;;;;;5032727;28;20018;-86
2021/08/25 11:48:11;;;;;;;7.65;2.55;;;29.10;68.80;;;;;;5030020;28;20116;-85
2021/08/25 11:50:40;;;;;;;3.40;2.33;;;29.40;68.40;;;;;;5015871;28;20033;-85
2021/08/25 11:53:22;;;;;;;7.68;2.28;;;29.00;68.20;;;;;;5023025;28;20460;-83
2021/08/25 11:55:50;;;;;;;7.07;2.72;;;28.60;68.50;;;;;;5014487;28;20459;-82
2021/08/25 11:58:26;;;;;;;3.10;2.35;;;28.80;68.80;;;;;;5012489;28;20393;-84
2021/08/25 12:00:56;;;;;;;7.07;2.50;;;29.20;69.60;;;;;;5025528;28;20037;-75
2021/08/25 12:03:40;;;;;;;7.47;2.42;;;29.10;70.10;;;;;;5025915;28;20038;-84
2021/08/25 12:06:06;;;;;;;5.95;2.40;;;29.10;69.70;;;;;;5027168;28;20083;-84
2021/08/25 12:08:39;;;;;;;5.72;2.20;;;29.00;67.90;;;;;;5019715;28;20029;-77
2021/08/25 12:11:06;;;;;;;6.80;2.40;;;29.00;69.00;;;;;;5024140;28;20493;-82
2021/08/25 12:13:59;;;;;;;5.25;2.38;;;29.10;68.70;;;;;;5027495;28;20029;-81
2021/08/25 12:16:32;;;;;;;6.13;2.75;;;29.00;68.80;;;;;;5027978;28;20408;-87
2021/08/25 12:19:03;;;;;;;12.77;2.65;;;29.20;69.10;;;;;;5021911;28;20034;-76
2021/08/25 12:21:31;;;;;;;2.30;2.10;;;29.20;69.10;;;;;;5013795;28;20042;-87
2021/08/25 12:24:04;;;;;;;8.98;2.33;;;29.40;68.90;;;;;;5014219;28;20139;-85
2021/08/25 12:26:30;;;;;;;;;;;29.50;68.60;;;;;;5021162;28;20026;-84
2021/08/25 12:28:57;;;;;;;7.13;2.60;;;29.30;69.10;;;;;;5028629;28;20433;-87
2021/08/25 12:31:26;;;;;;;8.23;2.60;;;29.40;68.60;;;;;;5016635;28;20034;-77
2021/08/25 12:34:02;;;;;;;5.18;2.67;;;29.40;68.70;;;;;;5029890;28;20072;-76
2021/08/25 12:36:37;;;;;;;8.00;2.20;;;29.30;67.80;;;;;;5015617;28;20036;-84
2021/08/25 12:39:05;;;;;;;5.28;2.17;;;29.30;69.10;;;;;;5028471;28;20042;-83
2021/08/25 12:41:32;;;;;;;6.63;2.35;;;29.10;68.00;;;;;;5021475;28;20040;-78
2021/08/25 12:43:58;;;;;;;5.10;2.30;;;28.90;69.00;;;;;;5021231;28;20111;-82
2021/08/25 12:46:24;;;;;;;16.70;3.80;;;29.00;69.10;;;;;;5029159;28;20013;-76
2021/08/25 12:48:50;;;;;;;6.32;2.30;;;29.10;68.70;;;;;;5027657;28;20033;-83